createdAt,value
2023-05-20T00:27:16.041Z,95305.16
2023-05-20T00:29:42.799Z,95299.94
2023-05-20T00:32:10.025Z,95307.28
2023-05-20T00:34:36.906Z,95244.81
2023-05-20T00:37:03.794Z,95287.75
2023-05-20T00:39:30.811Z,95296.38
2023-05-20T00:42:00.704Z,95302.16
2023-05-20T00:44:35.599Z,95245.78
2023-05-20T00:47:13.643Z,95187.59
2023-05-20T00:49:40.963Z,95300.50
2023-05-20T00:52:08.523Z,95272.00
2023-05-20T00:54:35.528Z,95291.41
2023-05-20T00:57:03.438Z,95288.53
2023-05-20T00:59:57.300Z,95249.81
2023-05-20T01:02:36.257Z,95175.53
2023-05-20T01:10:26.436Z,95274.81
2023-05-20T01:12:58.583Z,95240.81
2023-05-20T01:15:30.785Z,95251.56
2023-05-20T01:18:02.261Z,95291.69
2023-05-20T01:20:32.958Z,95237.38
2023-05-20T01:22:59.919Z,95268.00
2023-05-20T01:25:27.081Z,95264.06
2023-05-20T01:27:57.941Z,95287.59
2023-05-20T01:30:30.764Z,95280.13
2023-05-20T01:33:02.828Z,95225.09
2023-05-20T01:35:30.522Z,95285.47
2023-05-20T01:38:01.471Z,95272.09
2023-05-20T01:40:28.616Z,95264.84
2023-05-20T01:42:58.242Z,95267.41
2023-05-20T01:45:25.429Z,95225.41
2023-05-20T01:47:53.010Z,95276.78
2023-05-20T01:50:19.969Z,95195.13
2023-05-20T01:53:16.893Z,95246.00
2023-05-20T01:58:44.730Z,95295.84
2023-05-20T02:01:11.557Z,95235.47
2023-05-20T02:03:42.049Z,95285.78
2023-05-20T02:06:08.719Z,95193.00
2023-05-20T02:08:35.506Z,95213.22
2023-05-20T02:11:02.332Z,95251.13
2023-05-20T02:13:29.874Z,95183.66
2023-05-20T02:15:56.613Z,95268.53
2023-05-20T02:18:23.583Z,95270.81
2023-05-20T02:20:50.755Z,95252.75
2023-05-20T02:23:17.626Z,95212.91
2023-05-20T02:25:44.703Z,95246.09
2023-05-20T02:28:30.564Z,95233.38
2023-05-20T02:30:58.394Z,95173.03
2023-05-20T02:33:28.028Z,95226.94
2023-05-20T02:36:36.114Z,95140.41
2023-05-20T02:39:53.248Z,95274.91
2023-05-20T02:42:41.069Z,95204.19
2023-05-20T02:45:08.950Z,95226.66
2023-05-20T02:47:36.089Z,95273.00
2023-05-20T02:50:03.467Z,95271.13
2023-05-20T02:52:37.464Z,95171.81
2023-05-20T02:55:05.206Z,95174.78
2023-05-20T02:57:34.855Z,95260.63
2023-05-20T03:00:02.073Z,95242.28
2023-05-20T03:02:29.056Z,95227.78
2023-05-20T03:04:56.544Z,95288.69
2023-05-20T03:07:25.162Z,95275.38
2023-05-20T03:09:52.701Z,95279.22
2023-05-20T03:12:19.622Z,95261.47
2023-05-20T03:14:46.365Z,95290.47
2023-05-20T03:17:13.240Z,95297.13
2023-05-20T03:20:18.508Z,95280.28
2023-05-20T03:26:20.388Z,95301.78
2023-05-20T03:28:47.309Z,95227.66
2023-05-20T03:31:14.660Z,95239.34
2023-05-20T03:34:32.916Z,95226.97
2023-05-20T03:37:01.723Z,95298.97
2023-05-20T03:39:30.174Z,95250.19
2023-05-20T03:41:58.007Z,95266.22
2023-05-20T03:44:37.335Z,95292.44
2023-05-20T03:47:11.089Z,95233.47
2023-05-20T03:49:45.384Z,95302.16
2023-05-20T03:52:15.238Z,95285.19
2023-05-20T03:54:42.495Z,95311.03
2023-05-20T03:57:10.693Z,95286.56
2023-05-20T03:59:39.641Z,95320.25
2023-05-20T04:02:07.189Z,95284.13
2023-05-20T04:04:35.592Z,95341.16
2023-05-20T04:07:05.530Z,95304.56
2023-05-20T04:09:33.016Z,95287.06
2023-05-20T04:11:59.991Z,95263.16
2023-05-20T04:14:27.049Z,95268.47
2023-05-20T04:16:54.555Z,95329.63
2023-05-20T04:19:23.817Z,95335.38
2023-05-20T04:21:52.590Z,95326.97
2023-05-20T04:24:19.754Z,95320.28
2023-05-20T04:26:47.227Z,95329.44
2023-05-20T04:29:16.435Z,95333.63
2023-05-20T04:32:04.890Z,95287.22
2023-05-20T04:34:35.234Z,95275.66
2023-05-20T04:37:04.315Z,95337.94
2023-05-20T04:39:31.335Z,95277.31
2023-05-20T04:41:58.472Z,95293.09
2023-05-20T04:44:26.679Z,95316.69
2023-05-20T04:46:54.591Z,95355.88
2023-05-20T04:49:26.897Z,95253.53
2023-05-20T04:51:56.110Z,95350.97
2023-05-20T04:54:23.462Z,95345.28
2023-05-20T04:56:53.732Z,95333.03
2023-05-20T04:59:33.615Z,95319.56
2023-05-20T05:02:02.969Z,95334.31
2023-05-20T05:07:12.986Z,95272.94
2023-05-20T05:09:40.403Z,95344.66
2023-05-20T05:12:09.321Z,95327.06
2023-05-20T05:14:36.776Z,95342.38
2023-05-20T05:27:15.921Z,95308.88
2023-05-20T05:33:27.997Z,95301.81
2023-05-20T05:35:59.655Z,95301.56
2023-05-20T05:41:08.344Z,95345.44
2023-05-20T05:43:36.015Z,95269.28
2023-05-20T05:46:03.417Z,95335.47
2023-05-20T05:48:30.355Z,95318.59
2023-05-20T05:50:57.206Z,95334.63
2023-05-20T05:53:23.994Z,95336.88
2023-05-20T05:55:50.950Z,95337.94
2023-05-20T05:58:17.886Z,95330.78
2023-05-20T06:00:54.905Z,95298.91
2023-05-20T06:03:36.960Z,95268.38
2023-05-20T06:09:17.401Z,95328.63
2023-05-20T06:12:03.934Z,95253.59
2023-05-20T06:14:35.165Z,95335.06
2023-05-20T06:17:07.341Z,95319.91
2023-05-20T06:23:04.749Z,95265.75
2023-05-20T06:25:31.573Z,95323.25
2023-05-20T06:27:58.769Z,95323.38
2023-05-20T06:30:25.625Z,95323.09
2023-05-20T06:32:52.805Z,95284.06
2023-05-20T06:35:19.709Z,95251.28
2023-05-20T06:37:57.374Z,95293.56
2023-05-20T06:40:24.335Z,95253.22
2023-05-20T06:42:51.404Z,95298.19
2023-05-20T06:45:18.281Z,95248.66
2023-05-20T06:47:45.810Z,95278.59
2023-05-20T06:50:13.441Z,95224.88
2023-05-20T06:52:40.365Z,95235.91
2023-05-20T06:56:17.364Z,95214.34
2023-05-20T06:58:45.385Z,95263.28
2023-05-20T07:01:15.957Z,95255.88
2023-05-20T07:03:44.726Z,95295.91
2023-05-20T07:06:11.857Z,95252.38
2023-05-20T07:08:38.791Z,95272.66
2023-05-20T07:11:06.145Z,95291.84
2023-05-20T07:13:33.397Z,95269.06
2023-05-20T07:16:00.241Z,95264.28
2023-05-20T07:18:28.548Z,95259.53
2023-05-20T07:20:57.101Z,95293.97
2023-05-20T07:23:24.488Z,95258.72
2023-05-20T07:25:51.753Z,95287.53
2023-05-20T07:28:18.808Z,95251.28
2023-05-20T07:30:50.142Z,95256.44
2023-05-20T07:33:17.935Z,95261.06
2023-05-20T07:35:45.779Z,95246.00
2023-05-20T07:38:12.863Z,95223.97
2023-05-20T07:40:42.617Z,95277.25
2023-05-20T07:43:09.648Z,95255.84
2023-05-20T07:45:39.511Z,95268.06
2023-05-20T07:48:08.944Z,95284.88
2023-05-20T07:50:36.889Z,95214.38
2023-05-20T07:53:03.738Z,95277.06
2023-05-20T07:55:31.368Z,95195.06
2023-05-20T07:57:58.327Z,95226.19
2023-05-20T08:00:25.379Z,95248.84
2023-05-20T08:02:52.487Z,95248.72
2023-05-20T08:05:19.535Z,95281.00
2023-05-20T08:07:46.893Z,95225.97
2023-05-20T08:10:13.860Z,95246.50
2023-05-20T08:12:41.251Z,95256.16
2023-05-20T08:15:08.677Z,95265.28
2023-05-20T08:17:35.905Z,95239.56
2023-05-20T08:20:03.167Z,95269.13
2023-05-20T08:22:29.961Z,95276.13
2023-05-20T08:25:23.825Z,95223.72
2023-05-20T08:28:09.234Z,95266.91
2023-05-20T08:30:36.661Z,95163.38
2023-05-20T08:33:07.035Z,95192.47
2023-05-20T08:35:34.296Z,95224.63
2023-05-20T08:38:02.236Z,95260.75
2023-05-20T08:40:29.314Z,95218.19
2023-05-20T08:42:57.771Z,95248.97
2023-05-20T08:45:28.833Z,95252.94
2023-05-20T08:47:55.892Z,95242.78
2023-05-20T08:50:22.683Z,95263.94
2023-05-20T08:52:49.685Z,95257.31
2023-05-20T08:55:24.668Z,95241.63
2023-05-20T08:57:51.643Z,95241.81
2023-05-20T09:00:18.736Z,95264.34
2023-05-20T09:02:46.367Z,95249.28
2023-05-20T09:05:13.990Z,95262.41
2023-05-20T09:07:42.894Z,95249.47
2023-05-20T09:10:10.053Z,95251.88
2023-05-20T09:12:38.665Z,95249.34
2023-05-20T09:15:06.528Z,95223.31
2023-05-20T09:17:36.465Z,95240.63
2023-05-20T09:20:08.850Z,95234.00
2023-05-20T09:22:35.875Z,95232.22
2023-05-20T09:25:02.613Z,95227.56
2023-05-20T09:27:29.329Z,95224.47
2023-05-20T09:29:56.123Z,95231.63
2023-05-20T09:32:24.424Z,95227.69
2023-05-20T09:34:51.286Z,95228.44
2023-05-20T09:37:21.783Z,95229.09
2023-05-20T09:39:59.691Z,95225.50
2023-05-20T09:42:40.280Z,95211.59
2023-05-20T09:45:11.557Z,95226.84
2023-05-20T09:47:43.483Z,95221.38
2023-05-20T09:50:10.307Z,95222.44
2023-05-20T09:52:38.779Z,95197.13
2023-05-20T09:55:10.801Z,95212.56
2023-05-20T09:57:38.195Z,95206.13
2023-05-20T10:00:06.793Z,95197.50
2023-05-20T10:02:34.452Z,95212.63
2023-05-20T10:05:07.741Z,95206.03
2023-05-20T10:07:56.817Z,95210.69
2023-05-20T10:10:48.541Z,95201.75
2023-05-20T10:13:33.794Z,95198.38
2023-05-20T10:16:16.540Z,95189.38
2023-05-20T10:18:53.091Z,95190.38
2023-05-20T10:21:25.178Z,95174.63
2023-05-20T10:23:52.500Z,95171.19
2023-05-20T10:26:19.584Z,95180.78
2023-05-20T10:28:47.514Z,95167.09
2023-05-20T10:31:22.329Z,95177.13
2023-05-20T10:33:52.617Z,95150.75
2023-05-20T10:36:24.112Z,95158.69
2023-05-20T10:38:58.212Z,95166.69
2023-05-20T10:41:29.587Z,95159.66
2023-05-20T10:44:06.679Z,95139.66
2023-05-20T10:46:46.409Z,95148.84
2023-05-20T10:49:24.062Z,95119.78
2023-05-20T10:51:54.369Z,95137.78
2023-05-20T10:54:22.928Z,95129.34
2023-05-20T10:56:54.040Z,95146.81
2023-05-20T10:59:24.644Z,95137.84
2023-05-20T11:01:51.818Z,95123.59
2023-05-20T11:04:19.837Z,95134.47
2023-05-20T11:06:57.207Z,95117.97
2023-05-20T11:09:23.953Z,95122.28
2023-05-20T11:11:52.802Z,95156.28
2023-05-20T11:14:20.285Z,95128.84
2023-05-20T11:16:51.183Z,95123.84
2023-05-20T11:19:19.131Z,95134.34
2023-05-20T11:21:46.612Z,95133.06
2023-05-20T11:24:14.134Z,95101.94
2023-05-20T11:26:41.337Z,95106.59
2023-05-20T11:29:08.512Z,95109.94
2023-05-20T11:31:38.887Z,95111.34
2023-05-20T11:34:05.620Z,95105.03
2023-05-20T11:36:32.477Z,95097.38
2023-05-20T11:39:00.055Z,95096.28
2023-05-20T11:41:27.957Z,95088.06
2023-05-20T11:44:01.555Z,95065.75
2023-05-20T11:46:28.783Z,95095.88
2023-05-20T11:48:56.328Z,95092.06
2023-05-20T11:51:29.950Z,95094.88
2023-05-20T11:54:04.253Z,95087.75
2023-05-20T11:56:31.882Z,95079.56
2023-05-20T11:59:00.475Z,95056.78
2023-05-20T12:01:29.748Z,95087.97
2023-05-20T12:03:57.205Z,95069.63
2023-05-20T12:06:24.244Z,95082.31
2023-05-20T12:08:53.761Z,95041.84
2023-05-20T12:11:21.971Z,95065.00
2023-05-20T12:13:48.738Z,95051.91
2023-05-20T12:16:15.699Z,95068.53
2023-05-20T12:18:42.595Z,95055.50
2023-05-20T12:21:09.733Z,95091.50
2023-05-20T12:23:36.487Z,95075.63
2023-05-20T12:26:03.414Z,95045.44
2023-05-20T12:28:30.275Z,95040.34
2023-05-20T12:30:56.848Z,95096.03
2023-05-20T12:33:23.739Z,95067.84
2023-05-20T12:35:50.795Z,95066.34
2023-05-20T12:38:17.498Z,95118.19
2023-05-20T12:40:44.609Z,95023.94
2023-05-20T12:43:11.382Z,95055.59
2023-05-20T12:45:38.312Z,95113.19
2023-05-20T12:48:07.261Z,95050.00
2023-05-20T12:50:34.392Z,95083.19
2023-05-20T12:53:01.332Z,95047.88
2023-05-20T12:55:28.117Z,95072.81
2023-05-20T12:57:56.454Z,95070.06
2023-05-20T13:00:23.252Z,95071.94
2023-05-20T13:02:50.153Z,95083.03
2023-05-20T13:05:16.937Z,95086.19
2023-05-20T13:07:43.868Z,95094.63
2023-05-20T13:10:11.496Z,95065.25
2023-05-20T13:12:38.428Z,95068.91
2023-05-20T13:15:05.631Z,95055.81
2023-05-20T13:17:32.593Z,95056.66
2023-05-20T13:19:59.411Z,95061.31
2023-05-20T13:22:26.331Z,95062.34
2023-05-20T13:24:53.107Z,95051.16
2023-05-20T13:27:20.053Z,95044.97
2023-05-20T13:29:46.675Z,95047.44
2023-05-20T13:32:13.368Z,95052.09
2023-05-20T13:34:40.200Z,95041.75
2023-05-20T13:37:07.086Z,95041.47
2023-05-20T13:39:34.280Z,95024.34
2023-05-20T13:42:01.163Z,95031.00
2023-05-20T13:44:27.899Z,95044.38
2023-05-20T13:46:54.612Z,95029.03
2023-05-20T13:49:21.669Z,95022.31
2023-05-20T13:51:48.447Z,95041.47
2023-05-20T13:54:15.188Z,95038.34
2023-05-20T13:56:42.678Z,95007.31
2023-05-20T13:59:09.333Z,95019.59
2023-05-20T14:01:36.655Z,95021.72
2023-05-20T14:04:04.503Z,95005.19
2023-05-20T14:06:32.079Z,95006.50
2023-05-20T14:08:58.781Z,95007.78
2023-05-20T14:11:25.708Z,94989.47
2023-05-20T14:13:52.340Z,94993.94
2023-05-20T14:16:19.277Z,95001.31
2023-05-20T14:18:46.075Z,94994.16
2023-05-20T14:21:12.829Z,94987.50
2023-05-20T14:23:44.884Z,94997.44
2023-05-20T14:26:11.576Z,94999.47
2023-05-20T14:28:38.510Z,94968.28
2023-05-20T14:31:07.444Z,94992.88
2023-05-20T14:33:35.625Z,94992.47
2023-05-20T14:36:02.577Z,94986.19
2023-05-20T14:38:29.231Z,94996.91
2023-05-20T14:40:56.037Z,94990.53
2023-05-20T14:43:22.976Z,94979.66
2023-05-20T14:45:49.819Z,95003.03
2023-05-20T14:48:23.103Z,94998.50
2023-05-20T14:50:51.652Z,95004.75
2023-05-20T14:53:20.266Z,95005.00
2023-05-20T14:58:13.923Z,95009.66
2023-05-20T15:00:41.548Z,95006.09
2023-05-20T15:03:11.945Z,95002.34
2023-05-20T15:05:39.718Z,94992.66
2023-05-20T15:08:07.536Z,94937.22
2023-05-20T15:10:42.381Z,94940.25
2023-05-20T15:13:09.824Z,94886.22
2023-05-20T15:15:42.378Z,94942.19
2023-05-20T15:18:15.872Z,95010.47
2023-05-20T15:20:46.107Z,94997.16
2023-05-20T15:23:20.309Z,94989.69
2023-05-20T15:25:48.728Z,94924.22
2023-05-20T15:28:23.181Z,94919.75
2023-05-20T15:30:54.770Z,94878.28
2023-05-20T15:33:25.386Z,94876.50
2023-05-20T15:35:55.464Z,94908.22
2023-05-20T15:38:22.618Z,94970.19
2023-05-20T15:40:52.657Z,94939.94
2023-05-20T15:43:20.006Z,94894.44
2023-05-20T15:45:53.522Z,94965.63
2023-05-20T15:48:22.280Z,94906.16
2023-05-20T15:50:49.145Z,94913.88
2023-05-20T15:53:16.147Z,94962.84
2023-05-20T15:55:44.817Z,94887.84
2023-05-20T15:58:12.145Z,94942.06
2023-05-20T16:00:39.153Z,94939.88
2023-05-20T16:03:06.198Z,94936.38
2023-05-20T16:05:33.640Z,94875.22
2023-05-20T16:10:33.158Z,94967.19
2023-05-20T16:13:01.958Z,94857.03
2023-05-20T16:15:36.432Z,94930.03
2023-05-20T16:18:07.062Z,94955.25
2023-05-20T16:30:24.264Z,94976.78
2023-05-20T16:32:51.953Z,94924.84
2023-05-20T16:35:18.721Z,94916.13
2023-05-20T16:37:49.582Z,94965.97
2023-05-20T16:40:16.479Z,94974.44
2023-05-20T16:42:44.827Z,94915.00
2023-05-20T16:45:12.402Z,94976.03
2023-05-20T16:47:39.697Z,94870.50
2023-05-20T16:50:07.467Z,94884.22
2023-05-20T16:52:35.333Z,94921.69
2023-05-20T16:55:04.110Z,94975.88
2023-05-20T16:57:31.247Z,94975.13
2023-05-20T16:59:58.855Z,94977.41
2023-05-20T17:02:29.549Z,94976.19
2023-05-20T17:04:57.155Z,94911.56
2023-05-20T17:07:24.002Z,94897.63
2023-05-20T17:09:53.209Z,94962.66
2023-05-20T17:12:20.814Z,94958.63
2023-05-20T17:14:48.317Z,95002.69
2023-05-20T17:17:15.970Z,94904.75
2023-05-20T17:19:43.074Z,94950.28
2023-05-20T17:22:09.979Z,94995.31
2023-05-20T17:24:36.994Z,94947.34
2023-05-20T17:27:06.878Z,94999.66
2023-05-20T17:29:36.309Z,94961.19
2023-05-20T17:32:03.662Z,95016.72
2023-05-20T17:34:31.656Z,94949.72
2023-05-20T17:42:12.677Z,94963.75
2023-05-20T17:44:40.005Z,94981.25
2023-05-20T17:47:08.190Z,95015.25
2023-05-20T17:49:37.951Z,94927.22
2023-05-20T17:52:06.500Z,95030.06
2023-05-20T17:54:33.471Z,95030.31
2023-05-20T17:57:00.492Z,95042.34
2023-05-20T17:59:27.384Z,95031.56
2023-05-20T18:01:56.144Z,94987.78
2023-05-20T18:04:23.406Z,94996.81
2023-05-20T18:06:50.354Z,95032.81
2023-05-20T18:09:17.743Z,95036.09
2023-05-20T18:11:47.254Z,94970.75
2023-05-20T18:14:14.020Z,95013.81
2023-05-20T18:16:41.233Z,95031.59
2023-05-20T18:19:08.134Z,95022.56
2023-05-20T18:21:35.688Z,95028.59
2023-05-20T18:24:11.375Z,95016.31
2023-05-20T18:26:42.393Z,95029.81
2023-05-20T18:29:15.223Z,95029.34
2023-05-20T18:31:47.525Z,95034.84
2023-05-20T18:34:16.708Z,95027.31
2023-05-20T18:36:44.781Z,95051.88
2023-05-20T18:39:14.890Z,94992.28
2023-05-20T18:44:19.785Z,95032.53
2023-05-20T18:46:54.559Z,94976.47
2023-05-20T18:49:21.771Z,95037.53
2023-05-20T18:51:51.282Z,94947.94
2023-05-20T18:56:54.331Z,95031.28
2023-05-20T18:59:24.523Z,95049.03
2023-05-20T19:01:52.233Z,94983.88
2023-05-20T19:04:19.049Z,94985.88
2023-05-20T19:06:55.246Z,94995.63
2023-05-20T19:12:13.532Z,95034.22
2023-05-20T19:53:08.672Z,95084.50
2023-05-20T19:55:36.742Z,95060.91
2023-05-20T19:58:20.503Z,95062.69
2023-05-20T20:00:47.397Z,95015.34
2023-05-20T20:03:17.330Z,95027.06
2023-05-20T20:05:44.288Z,95094.13
2023-05-20T20:08:11.532Z,95017.53
2023-05-20T20:10:38.506Z,95064.09
2023-05-20T20:13:05.798Z,94964.00
2023-05-20T20:15:33.375Z,95037.41
2023-05-20T20:18:02.698Z,95002.91
2023-05-20T20:20:40.004Z,95062.94
2023-05-20T20:23:08.162Z,94993.34
2023-05-20T20:25:41.223Z,94966.63
2023-05-20T20:28:09.554Z,95047.94
2023-05-20T20:30:36.745Z,95017.06
2023-05-20T20:33:10.002Z,95000.31
2023-05-20T20:35:37.941Z,95032.31
2023-05-20T20:38:09.780Z,94994.06
2023-05-20T20:40:42.655Z,95029.47
2023-05-20T20:43:11.459Z,94993.59
2023-05-20T20:45:43.496Z,95012.44
2023-05-20T20:48:10.575Z,94987.25
2023-05-20T20:50:37.387Z,94976.19
2023-05-20T20:53:04.728Z,95008.84
2023-05-20T20:55:32.073Z,95029.38
2023-05-20T20:58:02.833Z,94968.38
2023-05-20T21:00:29.873Z,95009.78
2023-05-20T21:02:57.803Z,94999.63
2023-05-20T21:05:26.709Z,94944.19
2023-05-20T21:07:58.470Z,95003.59
2023-05-20T21:10:29.859Z,94998.06
2023-05-20T21:13:00.181Z,95029.28
2023-05-20T21:15:30.929Z,95003.78
2023-05-20T21:18:05.096Z,94918.28
2023-05-20T21:20:35.928Z,94953.69
2023-05-20T21:23:06.570Z,94909.50
2023-05-20T21:25:41.956Z,95023.63
2023-05-20T21:28:10.071Z,95019.88
2023-05-20T21:30:37.411Z,95027.16
2023-05-20T21:33:04.731Z,95020.44
2023-05-20T21:35:31.712Z,95020.44
2023-05-20T21:37:58.863Z,95011.44
2023-05-20T21:40:25.930Z,95001.69
2023-05-20T21:42:54.006Z,95004.16
2023-05-20T21:45:21.225Z,94947.19
2023-05-20T21:47:48.445Z,94989.22
2023-05-20T21:50:15.682Z,95014.13
2023-05-20T21:52:42.929Z,94971.13
2023-05-20T21:55:10.704Z,94940.84
2023-05-20T21:57:38.745Z,95002.09
2023-05-20T22:00:15.514Z,94990.59
2023-05-20T22:02:42.532Z,94972.94
2023-05-20T22:05:12.890Z,94992.41
2023-05-20T22:07:48.106Z,94988.25
2023-05-20T22:10:17.602Z,94986.28
2023-05-20T22:12:45.194Z,94984.56
2023-05-20T22:15:12.405Z,94989.00
2023-05-20T22:17:40.033Z,94954.81
2023-05-20T22:20:08.480Z,94978.47
2023-05-20T22:22:39.281Z,94920.38
2023-05-20T22:25:07.507Z,94930.56
2023-05-20T22:27:35.122Z,94931.31
2023-05-20T22:30:02.480Z,94975.94
2023-05-20T22:32:29.111Z,94966.47
2023-05-20T22:34:58.524Z,94960.03
2023-05-20T22:37:26.916Z,94967.91
2023-05-20T22:39:53.602Z,94960.09
2023-05-20T22:42:20.538Z,94962.34
2023-05-20T22:44:47.282Z,94940.69
2023-05-20T22:47:13.972Z,94949.16
2023-05-20T22:49:42.374Z,94935.41
2023-05-20T22:52:09.062Z,94955.22
2023-05-20T22:54:36.153Z,94945.03
2023-05-20T22:57:02.929Z,94958.97
2023-05-20T22:59:32.911Z,94938.44
2023-05-20T23:01:59.666Z,94950.19
2023-05-20T23:04:26.560Z,94951.25
2023-05-20T23:06:54.171Z,94951.81
2023-05-20T23:09:21.127Z,94887.94
2023-05-20T23:11:48.001Z,94933.91
2023-05-20T23:14:14.837Z,94940.47
2023-05-20T23:16:43.243Z,94911.34
2023-05-20T23:19:10.614Z,94927.25
2023-05-20T23:21:37.685Z,94878.28
2023-05-20T23:24:05.144Z,94917.44
2023-05-20T23:26:36.776Z,94919.22
2023-05-20T23:29:05.012Z,94912.41
2023-05-20T23:31:34.657Z,94869.78
2023-05-20T23:34:03.852Z,94880.13
2023-05-20T23:36:34.699Z,94891.75
2023-05-20T23:39:02.634Z,94877.19
2023-05-20T23:41:29.644Z,94858.91
2023-05-20T23:43:56.851Z,94873.50
2023-05-20T23:46:23.902Z,94865.13
2023-05-20T23:48:50.969Z,94841.63
2023-05-20T23:51:18.270Z,94882.81
2023-05-20T23:53:45.209Z,94880.69
2023-05-20T23:56:12.076Z,94813.63
2023-05-20T23:58:39.150Z,94881.13
